Time;durP1;ratioP1;P1;durP2;ratioP2;P2;SDS_P1;SDS_P2;PMS_P1;PMS_P2;Temp;Humidity;BMP_temperature;BMP_pressure;BME280_temperature;BME280_humidity;BME280_pressure;Samples;Min_cycle;Max_cycle;Signal;HPM_P1;HPM_P2
2022/02/17 00:00:13;;;;;;;4.63;2.42;;;;;;;;;;4978949;28;20046;-71
2022/02/17 00:02:43;;;;;;;4.78;2.65;;;;;;;;;;4996279;28;20058;-75
2022/02/17 00:05:13;;;;;;;7.22;2.70;;;;;;;;;;4995852;28;20130;-71
2022/02/17 00:07:41;;;;;;;2.80;1.75;;;;;;;;;;4995847;28;20042;-71
2022/02/17 00:10:09;;;;;;;6.72;2.25;;;;;;;;;;4995966;28;20398;-72
2022/02/17 00:12:37;;;;;;;3.90;2.00;;;;;;;;;;4995913;28;20031;-72
2022/02/17 00:15:06;;;;;;;4.65;1.90;;;;;;;;;;4995458;28;20042;-71
2022/02/17 00:17:34;;;;;;;4.88;2.22;;;;;;;;;;4978369;28;20034;-70
2022/02/17 00:20:03;;;;;;;3.05;1.90;;;;;;;;;;4995949;28;20425;-72
2022/02/17 00:22:31;;;;;;;5.38;1.92;;;;;;;;;;4995938;28;20402;-75
2022/02/17 00:24:59;;;;;;;2.65;1.50;;;;;;;;;;4978372;28;20406;-75
2022/02/17 00:27:27;;;;;;;2.70;1.70;;;;;;;;;;4977852;28;20050;-72
2022/02/17 00:29:54;;;;;;;3.97;1.80;;;;;;;;;;4977878;28;20048;-70
2022/02/17 00:32:26;;;;;;;3.65;2.00;;;;;;;;;;4977953;28;20038;-75
2022/02/17 00:34:56;;;;;;;4.95;2.50;;;;;;;;;;4978064;28;20512;-70
2022/02/17 00:37:23;;;;;;;4.22;1.85;;;;;;;;;;4975261;28;20053;-75
2022/02/17 00:39:51;;;;;;;5.63;2.00;;;;;;;;;;4963771;28;20114;-72
2022/02/17 00:42:22;;;;;;;2.58;1.92;;;;;;;;;;4977636;28;20053;-72
2022/02/17 00:44:50;;;;;;;3.55;1.98;;;;;;;;;;4995666;28;20041;-69
2022/02/17 00:47:18;;;;;;;5.47;2.20;;;;;;;;;;4995165;28;20048;-75
2022/02/17 00:49:45;;;;;;;5.00;2.70;;;;;;;;;;4977323;28;20070;-70
2022/02/17 00:52:15;;;;;;;5.50;2.53;;;;;;;;;;4977801;28;20415;-69
2022/02/17 00:54:43;;;;;;;5.22;2.65;;;;;;;;;;4995062;28;20054;-72
2022/02/17 00:57:10;;;;;;;5.13;2.72;;;;;;;;;;4995136;28;20046;-72
2022/02/17 00:59:40;;;;;;;4.22;2.53;;;;;;;;;;4961723;28;20057;-75
2022/02/17 01:02:14;;;;;;;4.43;2.42;;;;;;;;;;4976704;28;20409;-73
2022/02/17 01:04:41;;;;;;;6.32;2.42;;;;;;;;;;4994259;28;20034;-75
2022/02/17 01:07:08;;;;;;;3.38;1.95;;;;;;;;;;4977121;28;20042;-72
2022/02/17 01:09:36;;;;;;;4.45;1.80;;;;;;;;;;4994937;28;20043;-73
2022/02/17 01:12:04;;;;;;;3.63;1.67;;;;;;;;;;4994592;28;20074;-75
2022/02/17 01:14:32;;;;;;;3.13;1.90;;;;;;;;;;4976802;28;20038;-76
2022/02/17 01:16:59;;;;;;;2.75;1.67;;;;;;;;;;4994817;28;20052;-72
2022/02/17 01:19:33;;;;;;;2.70;1.67;;;;;;;;;;4976817;28;20058;-73
2022/02/17 01:22:00;;;;;;;3.38;1.60;;;;;;;;;;4976922;28;20136;-74
2022/02/17 01:24:30;;;;;;;2.75;1.60;;;;;;;;;;4976919;28;20046;-70
2022/02/17 01:27:04;;;;;;;2.60;1.50;;;;;;;;;;4976191;28;20050;-73
2022/02/17 01:29:34;;;;;;;4.65;1.65;;;;;;;;;;4960736;28;20057;-70
2022/02/17 01:32:03;;;;;;;3.88;1.65;;;;;;;;;;4960737;28;20066;-72
2022/02/17 01:34:30;;;;;;;4.85;1.63;;;;;;;;;;4976702;28;20042;-76
2022/02/17 01:37:00;;;;;;;3.80;1.58;;;;;;;;;;4976506;28;20129;-72
2022/02/17 01:39:32;;;;;;;3.65;1.80;;;;;;;;;;4976595;28;20148;-73
2022/02/17 01:42:06;;;;;;;3.47;1.73;;;;;;;;;;4976747;28;20050;-75
2022/02/17 01:44:35;;;;;;;6.00;1.90;;;;;;;;;;4976911;28;20157;-73
2022/02/17 01:47:08;;;;;;;3.17;1.80;;;;;;;;;;4960757;28;20093;-73
2022/02/17 01:49:39;;;;;;;4.82;1.63;;;;;;;;;;4976533;28;20477;-75
2022/02/17 01:52:09;;;;;;;3.13;1.40;;;;;;;;;;4976334;28;20050;-76
2022/02/17 01:54:40;;;;;;;2.75;1.50;;;;;;;;;;4976297;28;20137;-72
2022/02/17 01:57:09;;;;;;;5.50;1.50;;;;;;;;;;4976784;28;20101;-73
2022/02/17 01:59:41;;;;;;;3.92;1.40;;;;;;;;;;4976216;28;20118;-72
2022/02/17 02:02:12;;;;;;;5.18;1.83;;;;;;;;;;4976247;28;20097;-76
2022/02/17 02:04:41;;;;;;;4.63;2.05;;;;;;;;;;4976119;28;20069;-70
2022/02/17 02:07:09;;;;;;;2.83;1.63;;;;;;;;;;4976130;28;20133;-72
2022/02/17 02:09:38;;;;;;;3.72;1.60;;;;;;;;;;4975965;28;20042;-70
2022/02/17 02:12:11;;;;;;;2.83;1.30;;;;;;;;;;4976304;28;20073;-73
2022/02/17 02:14:49;;;;;;;4.35;1.55;;;;;;;;;;4976030;28;20673;-76
2022/02/17 02:17:22;;;;;;;4.80;1.27;;;;;;;;;;4976622;28;20054;-75
2022/02/17 02:19:50;;;;;;;3.67;1.50;;;;;;;;;;4960200;28;20109;-71
2022/02/17 02:22:18;;;;;;;6.38;1.42;;;;;;;;;;4976433;28;20050;-73
2022/02/17 02:24:46;;;;;;;4.80;1.67;;;;;;;;;;4993917;28;20046;-70
2022/02/17 02:27:15;;;;;;;2.03;1.35;;;;;;;;;;4959774;28;20152;-73
2022/02/17 02:29:44;;;;;;;5.95;1.42;;;;;;;;;;4975606;28;20065;-70
2022/02/17 02:32:14;;;;;;;3.45;1.30;;;;;;;;;;4976265;28;20078;-70
2022/02/17 02:34:43;;;;;;;1.85;1.02;;;;;;;;;;4976763;28;20034;-73
2022/02/17 02:37:15;;;;;;;3.03;1.88;;;;;;;;;;4960967;28;20137;-72
2022/02/17 02:39:44;;;;;;;4.65;1.60;;;;;;;;;;4975636;28;20050;-75
2022/02/17 02:42:13;;;;;;;4.63;1.50;;;;;;;;;;4960325;28;20046;-72
2022/02/17 02:44:41;;;;;;;3.83;1.20;;;;;;;;;;4993961;28;20042;-76
2022/02/17 02:47:09;;;;;;;2.90;1.27;;;;;;;;;;4975962;28;20050;-72
2022/02/17 02:49:40;;;;;;;1.73;1.00;;;;;;;;;;4975829;28;20061;-73
2022/02/17 02:52:09;;;;;;;1.75;1.50;;;;;;;;;;4959857;28;20160;-70
2022/02/17 02:54:39;;;;;;;2.38;1.38;;;;;;;;;;4975890;28;20616;-76
2022/02/17 02:57:07;;;;;;;4.65;2.08;;;;;;;;;;4960084;28;20058;-70
2022/02/17 02:59:35;;;;;;;4.70;1.65;;;;;;;;;;4993586;28;20410;-72
2022/02/17 03:02:06;;;;;;;7.05;1.50;;;;;;;;;;4975629;28;20573;-70
2022/02/17 03:04:34;;;;;;;3.45;1.27;;;;;;;;;;4993419;28;20042;-70
2022/02/17 03:07:14;;;;;;;3.05;1.17;;;;;;;;;;4975576;28;20129;-70
2022/02/17 03:09:44;;;;;;;2.33;1.15;;;;;;;;;;4960048;28;20050;-73
2022/02/17 03:12:14;;;;;;;2.45;1.02;;;;;;;;;;4975752;28;20050;-70
2022/02/17 03:14:44;;;;;;;3.55;1.35;;;;;;;;;;4975621;28;20068;-72
2022/02/17 03:17:32;;;;;;;2.58;1.10;;;;;;;;;;4993047;28;20561;-76
2022/02/17 03:19:59;;;;;;;5.60;1.48;;;;;;;;;;4975471;28;20453;-73
2022/02/17 03:22:27;;;;;;;1.75;0.98;;;;;;;;;;4978375;28;20050;-71
2022/02/17 03:24:57;;;;;;;3.00;1.20;;;;;;;;;;4979200;28;20038;-74
2022/02/17 03:27:26;;;;;;;3.35;1.25;;;;;;;;;;4978666;28;20057;-70
2022/02/17 03:30:13;;;;;;;5.90;1.48;;;;;;;;;;4979181;28;20133;-73
2022/02/17 03:32:44;;;;;;;4.22;1.27;;;;;;;;;;4979202;28;20213;-72
2022/02/17 03:35:15;;;;;;;4.10;1.27;;;;;;;;;;4963334;28;20409;-72
2022/02/17 03:37:43;;;;;;;2.42;1.42;;;;;;;;;;4978840;28;20077;-70
2022/02/17 03:40:11;;;;;;;3.45;1.55;;;;;;;;;;4962593;28;20145;-73
2022/02/17 03:42:51;;;;;;;1.42;0.82;;;;;;;;;;4964377;28;20046;-72
2022/02/17 03:45:23;;;;;;;2.58;1.40;;;;;;;;;;4996624;28;20038;-72
2022/02/17 03:48:01;;;;;;;5.70;1.70;;;;;;;;;;4963944;28;20395;-72
2022/02/17 03:50:29;;;;;;;2.47;1.38;;;;;;;;;;4978429;28;20174;-75
2022/02/17 03:53:07;;;;;;;2.50;1.08;;;;;;;;;;4980746;28;20045;-73
2022/02/17 03:55:38;;;;;;;6.03;1.60;;;;;;;;;;4978769;28;20073;-76
2022/02/17 03:58:06;;;;;;;5.47;1.30;;;;;;;;;;4963083;28;20116;-73
2022/02/17 04:00:36;;;;;;;2.78;1.02;;;;;;;;;;4978468;28;20061;-70
2022/02/17 04:03:05;;;;;;;4.03;0.88;;;;;;;;;;4978423;28;20441;-72
2022/02/17 04:05:35;;;;;;;1.88;1.02;;;;;;;;;;4978515;28;20046;-70
2022/02/17 04:08:05;;;;;;;3.75;1.50;;;;;;;;;;4978282;28;20050;-73
2022/02/17 04:10:33;;;;;;;4.90;1.75;;;;;;;;;;4978586;28;20039;-73
2022/02/17 04:13:05;;;;;;;2.22;1.50;;;;;;;;;;4978460;28;20047;-75
2022/02/17 04:15:46;;;;;;;6.63;1.70;;;;;;;;;;4978060;28;20066;-72
2022/02/17 04:18:26;;;;;;;5.15;2.25;;;;;;;;;;4978338;28;20049;-76
2022/02/17 04:21:07;;;;;;;2.33;1.55;;;;;;;;;;4978424;28;20038;-73
2022/02/17 04:23:48;;;;;;;4.55;1.98;;;;;;;;;;4978127;28;20124;-73
2022/02/17 04:26:19;;;;;;;7.25;2.10;;;;;;;;;;4978073;28;20042;-73
2022/02/17 04:28:55;;;;;;;1.13;1.00;;;;;;;;;;4977924;28;20062;-72
2022/02/17 04:31:27;;;;;;;2.65;1.10;;;;;;;;;;4977909;28;20476;-70
2022/02/17 04:33:56;;;;;;;2.40;1.30;;;;;;;;;;4978060;28;20108;-73
2022/02/17 04:36:25;;;;;;;2.67;1.15;;;;;;;;;;4977957;28;20137;-75
2022/02/17 04:38:53;;;;;;;4.30;1.25;;;;;;;;;;4946147;28;20421;-72
2022/02/17 04:44:18;;;;;;;2.25;1.23;;;;;;;;;;4977982;28;20053;-73
2022/02/17 04:46:46;;;;;;;4.28;1.27;;;;;;;;;;4977469;28;20594;-70
2022/02/17 04:49:14;;;;;;;2.00;1.20;;;;;;;;;;4977514;28;20076;-73
2022/02/17 04:51:42;;;;;;;2.95;1.10;;;;;;;;;;4995239;28;20038;-72
2022/02/17 04:54:18;;;;;;;1.92;1.20;;;;;;;;;;4977755;28;20144;-73
2022/02/17 04:56:50;;;;;;;4.55;1.60;;;;;;;;;;4977335;28;20081;-70
2022/02/17 04:59:18;;;;;;;3.53;1.65;;;;;;;;;;4961722;28;20142;-76
2022/02/17 05:01:47;;;;;;;5.10;1.88;;;;;;;;;;4977511;28;20105;-75
2022/02/17 05:04:39;;;;;;;6.20;1.73;;;;;;;;;;4995175;28;20410;-71
2022/02/17 05:07:15;;;;;;;5.68;1.70;;;;;;;;;;4977261;28;20498;-72
2022/02/17 05:09:43;;;;;;;4.70;1.80;;;;;;;;;;4977260;28;20498;-70
2022/02/17 05:12:12;;;;;;;3.53;1.58;;;;;;;;;;4977355;28;20054;-75
2022/02/17 05:14:42;;;;;;;7.28;2.10;;;;;;;;;;4976553;28;20125;-73
2022/02/17 05:17:12;;;;;;;5.47;1.92;;;;;;;;;;4977564;28;20072;-73
2022/02/17 05:19:42;;;;;;;3.85;2.05;;;;;;;;;;4977351;28;20397;-72
2022/02/17 05:22:22;;;;;;;3.45;1.85;;;;;;;;;;4977276;28;20486;-75
2022/02/17 05:25:06;;;;;;;4.88;1.85;;;;;;;;;;4976972;28;20051;-72
2022/02/17 05:27:40;;;;;;;4.63;1.75;;;;;;;;;;4976516;28;20061;-73
2022/02/17 05:30:18;;;;;;;3.85;1.77;;;;;;;;;;4976701;28;20053;-70
2022/02/17 05:33:12;;;;;;;3.78;1.73;;;;;;;;;;4977308;28;20091;-73
2022/02/17 05:36:06;;;;;;;2.90;2.00;;;;;;;;;;4964713;28;20064;-71
2022/02/17 05:38:43;;;;;;;5.53;2.25;;;;;;;;;;4961647;28;20058;-70
2022/02/17 05:41:16;;;;;;;4.45;2.55;;;;;;;;;;4978223;28;20045;-72
2022/02/17 05:43:44;;;;;;;5.25;2.28;;;;;;;;;;4976770;28;20034;-72
2022/02/17 05:46:12;;;;;;;3.65;2.05;;;;;;;;;;4993672;28;20065;-72
2022/02/17 05:48:42;;;;;;;11.02;2.35;;;;;;;;;;4993807;28;20038;-73
2022/02/17 05:51:10;;;;;;;5.93;2.38;;;;;;;;;;4993634;28;20034;-72
2022/02/17 05:53:37;;;;;;;7.13;2.78;;;;;;;;;;4976267;28;20133;-73
2022/02/17 05:56:05;;;;;;;7.57;3.03;;;;;;;;;;4993804;28;20038;-78
2022/02/17 05:58:33;;;;;;;7.85;3.00;;;;;;;;;;4994101;28;20034;-72
2022/02/17 06:01:01;;;;;;;6.28;2.38;;;;;;;;;;4976310;28;20472;-75
2022/02/17 06:03:29;;;;;;;4.65;2.67;;;;;;;;;;4992991;28;20093;-70
2022/02/17 06:05:57;;;;;;;9.70;2.88;;;;;;;;;;4993100;28;20405;-73
2022/02/17 06:08:24;;;;;;;6.55;2.67;;;;;;;;;;4993538;28;20039;-73
2022/02/17 06:10:53;;;;;;;4.13;2.03;;;;;;;;;;4975761;28;20509;-75
2022/02/17 06:13:20;;;;;;;5.75;2.85;;;;;;;;;;4993753;28;20058;-70
2022/02/17 06:15:48;;;;;;;7.15;2.40;;;;;;;;;;4993172;28;20030;-72
2022/02/17 06:18:16;;;;;;;4.57;2.00;;;;;;;;;;4993477;28;20050;-70
2022/02/17 06:20:48;;;;;;;2.45;1.88;;;;;;;;;;4993207;28;20042;-76
2022/02/17 06:23:16;;;;;;;6.20;2.50;;;;;;;;;;4976086;28;20518;-70
2022/02/17 06:25:44;;;;;;;4.90;3.10;;;;;;;;;;4992951;28;20038;-70
2022/02/17 06:28:13;;;;;;;2.60;1.83;;;;;;;;;;4992157;28;20065;-70
2022/02/17 06:30:44;;;;;;;2.17;1.50;;;;;;;;;;4992168;28;20122;-70
2022/02/17 06:33:12;;;;;;;3.65;1.98;;;;;;;;;;4992413;28;20046;-70
2022/02/17 06:35:40;;;;;;;5.20;2.10;;;;;;;;;;4975696;28;20038;-74
2022/02/17 06:38:08;;;;;;;4.63;2.33;;;;;;;;;;4993250;28;20125;-76
2022/02/17 06:40:37;;;;;;;6.15;3.13;;;;;;;;;;4993461;28;20131;-75
2022/02/17 06:43:06;;;;;;;8.15;3.92;;;;;;;;;;4993640;28;20401;-76
2022/02/17 06:45:35;;;;;;;7.97;2.88;;;;;;;;;;4975705;28;20052;-77
2022/02/17 06:48:03;;;;;;;9.77;3.50;;;;;;;;;;4993423;28;20043;-71
2022/02/17 06:50:31;;;;;;;7.90;3.25;;;;;;;;;;4975561;28;20039;-75
2022/02/17 06:53:01;;;;;;;13.18;3.33;;;;;;;;;;4993295;28;20121;-71
2022/02/17 06:55:28;;;;;;;6.47;3.10;;;;;;;;;;4993801;28;20039;-71
2022/02/17 06:57:56;;;;;;;11.32;2.90;;;;;;;;;;4996971;28;20054;-72
2022/02/17 07:00:29;;;;;;;11.15;3.28;;;;;;;;;;4978714;28;20046;-69
2022/02/17 07:03:00;;;;;;;6.63;3.30;;;;;;;;;;4978697;28;20386;-69
2022/02/17 07:05:34;;;;;;;10.90;2.92;;;;;;;;;;4996800;28;20046;-69
2022/02/17 07:08:05;;;;;;;7.25;3.00;;;;;;;;;;4979221;28;20049;-73
2022/02/17 07:13:21;;;;;;;10.55;3.65;;;;;;;;;;4994359;28;20092;-72
2022/02/17 07:15:50;;;;;;;4.90;2.47;;;;;;;;;;4995285;28;20057;-69
2022/02/17 07:18:25;;;;;;;4.97;2.40;;;;;;;;;;4995124;28;20046;-72
2022/02/17 07:20:54;;;;;;;15.95;3.28;;;;;;;;;;4978772;28;20047;-71
2022/02/17 07:23:24;;;;;;;51.15;5.80;;;;;;;;;;4996745;28;20050;-69
2022/02/17 07:25:52;;;;;;;6.15;2.90;;;;;;;;;;4995975;28;20042;-70
2022/02/17 07:28:22;;;;;;;12.27;3.10;;;;;;;;;;5067235;23;20069;-69
2022/02/17 07:30:50;;;;;;;5.68;2.10;;;;;;;;;;5013399;28;20097;-70
2022/02/17 07:33:18;;;;;;;8.88;2.80;;;;;;;;;;5014600;28;20042;-69
2022/02/17 07:35:46;;;;;;;6.30;2.65;;;;;;;;;;4996982;28;20048;-71
2022/02/17 07:38:34;;;;;;;3.58;1.90;;;;;;;;;;5014888;28;20038;-68
2022/02/17 07:41:02;;;;;;;3.78;1.95;;;;;;;;;;4998459;28;20073;-69
2022/02/17 07:43:31;;;;;;;4.82;1.50;;;;;;;;;;5009483;28;20536;-69
2022/02/17 07:46:00;;;;;;;2.83;1.63;;;;;;;;;;5015100;28;20072;-68
2022/02/17 07:48:28;;;;;;;5.00;1.83;;;;;;;;;;5014781;28;20489;-68
2022/02/17 07:50:56;;;;;;;6.78;2.58;;;;;;;;;;5014874;28;20132;-71
2022/02/17 07:53:23;;;;;;;5.60;2.03;;;;;;;;;;4981522;28;20124;-68
2022/02/17 07:55:51;;;;;;;3.05;1.70;;;;;;;;;;5015124;28;20473;-71
2022/02/17 07:58:19;;;;;;;6.55;2.08;;;;;;;;;;5015168;28;20042;-67
2022/02/17 08:00:47;;;;;;;6.07;1.70;;;;;;;;;;4997663;28;20049;-69
2022/02/17 08:03:17;;;;;;;4.07;1.58;;;;;;;;;;5014648;28;20129;-69
2022/02/17 08:05:45;;;;;;;1.92;1.25;;;;;;;;;;5015044;28;20038;-70
2022/02/17 08:08:12;;;;;;;1.90;1.00;;;;;;;;;;4995356;28;20531;-71
2022/02/17 08:10:40;;;;;;;7.90;5.47;;;;;;;;;;4995521;28;20125;-71
2022/02/17 08:13:09;;;;;;;4.00;2.20;;;;;;;;;;4995297;28;20058;-70
2022/02/17 08:15:36;;;;;;;2.85;1.90;;;;;;;;;;5000559;28;20162;-71
2022/02/17 08:18:05;;;;;;;2.42;1.60;;;;;;;;;;4997749;28;20375;-68
2022/02/17 08:20:33;;;;;;;2.60;1.02;;;;;;;;;;5015143;28;20063;-68
2022/02/17 08:23:00;;;;;;;3.55;1.20;;;;;;;;;;5014638;28;20034;-70
2022/02/17 08:25:28;;;;;;;1.48;0.95;;;;;;;;;;5015082;28;20042;-71
2022/02/17 08:27:55;;;;;;;4.60;1.08;;;;;;;;;;4996060;28;20125;-69
2022/02/17 08:30:23;;;;;;;1.95;0.95;;;;;;;;;;4983812;28;20045;-67
2022/02/17 08:32:54;;;;;;;2.90;1.42;;;;;;;;;;4987493;28;20041;-68
2022/02/17 08:35:23;;;;;;;;;;;;;;;;;;5004479;28;20500;-66
2022/02/17 08:37:51;;;;;;;5.78;1.50;;;;;;;;;;5005867;28;19928;-66
2022/02/17 08:40:19;;;;;;;2.65;1.30;;;;;;;;;;4986498;28;20045;-70
2022/02/17 08:42:46;;;;;;;5.50;2.42;;;;;;;;;;4977410;28;20174;-66
2022/02/17 08:45:14;;;;;;;6.00;2.72;;;;;;;;;;4994639;28;20046;-68
2022/02/17 08:47:41;;;;;;;11.40;2.53;;;;;;;;;;4977064;28;20030;-69
2022/02/17 08:50:09;;;;;;;12.60;3.80;;;;;;;;;;4994541;28;20117;-68
2022/02/17 08:52:37;;;;;;;14.90;4.10;;;;;;;;;;4977407;28;20046;-69
2022/02/17 08:55:06;;;;;;;6.82;3.65;;;;;;;;;;4994762;28;20118;-66
2022/02/17 08:57:34;;;;;;;8.88;3.42;;;;;;;;;;4994689;28;20038;-67
2022/02/17 09:00:01;;;;;;;9.48;3.35;;;;;;;;;;4977073;28;20052;-67
2022/02/17 09:02:30;;;;;;;10.75;3.70;;;;;;;;;;4994680;28;20109;-69
2022/02/17 09:04:57;;;;;;;5.70;3.10;;;;;;;;;;4994071;28;20363;-67
2022/02/17 09:07:25;;;;;;;6.72;2.83;;;;;;;;;;4994106;28;20078;-66
2022/02/17 09:09:53;;;;;;;5.95;3.65;;;;;;;;;;4993572;28;20443;-69
2022/02/17 09:12:20;;;;;;;9.93;4.30;;;;;;;;;;4993334;28;20066;-69
2022/02/17 09:14:48;;;;;;;7.28;3.30;;;;;;;;;;4993921;28;20034;-66
2022/02/17 09:17:15;;;;;;;12.63;3.70;;;;;;;;;;4976813;28;20076;-70
2022/02/17 09:19:43;;;;;;;5.43;3.50;;;;;;;;;;4976169;28;20477;-70
2022/02/17 09:22:11;;;;;;;5.75;3.05;;;;;;;;;;4993961;28;20034;-70
2022/02/17 09:24:39;;;;;;;6.20;2.88;;;;;;;;;;4981453;28;20089;-67
2022/02/17 09:27:09;;;;;;;5.80;3.10;;;;;;;;;;4993591;28;20050;-69
2022/02/17 09:29:36;;;;;;;8.68;3.58;;;;;;;;;;4993427;28;20032;-69
2022/02/17 09:32:22;;;;;;;6.78;2.95;;;;;;;;;;4993610;28;20164;-66
2022/02/17 09:34:51;;;;;;;6.40;3.28;;;;;;;;;;4993404;28;20433;-66
2022/02/17 09:37:18;;;;;;;6.57;3.38;;;;;;;;;;4980108;28;20035;-66
2022/02/17 09:39:47;;;;;;;5.30;3.10;;;;;;;;;;4993502;28;20397;-67
2022/02/17 09:42:15;;;;;;;4.93;2.95;;;;;;;;;;4993974;28;20481;-69
2022/02/17 09:44:44;;;;;;;6.72;3.95;;;;;;;;;;4993782;28;20048;-69
2022/02/17 09:47:12;;;;;;;5.45;3.50;;;;;;;;;;4993684;28;20034;-69
2022/02/17 09:49:40;;;;;;;7.13;4.00;;;;;;;;;;4993585;28;20073;-68
2022/02/17 09:52:11;;;;;;;5.53;3.65;;;;;;;;;;4992951;28;20038;-66
2022/02/17 09:54:39;;;;;;;4.93;2.50;;;;;;;;;;4993526;28;20043;-68
2022/02/17 09:57:07;;;;;;;2.88;1.63;;;;;;;;;;4977885;28;20038;-69
2022/02/17 09:59:35;;;;;;;2.58;1.20;;;;;;;;;;4993732;28;20385;-69
2022/02/17 10:02:05;;;;;;;3.85;1.80;;;;;;;;;;4976121;28;20141;-69
2022/02/17 10:04:33;;;;;;;2.55;1.27;;;;;;;;;;4975861;28;20418;-69
2022/02/17 10:07:09;;;;;;;1.85;0.93;;;;;;;;;;4993264;28;20131;-69
2022/02/17 10:09:39;;;;;;;4.65;1.60;;;;;;;;;;4993333;28;20046;-68
2022/02/17 10:12:07;;;;;;;2.58;1.70;;;;;;;;;;4993312;28;20046;-69
2022/02/17 10:14:38;;;;;;;2.70;1.58;;;;;;;;;;4992998;28;20049;-69
2022/02/17 10:17:14;;;;;;;3.55;1.88;;;;;;;;;;4992748;28;20471;-67
2022/02/17 10:19:50;;;;;;;4.32;1.65;;;;;;;;;;5005688;28;20085;-66
2022/02/17 10:22:20;;;;;;;2.78;1.20;;;;;;;;;;4995569;28;20042;-66
2022/02/17 10:24:48;;;;;;;4.53;1.08;;;;;;;;;;5012486;28;20046;-66
2022/02/17 10:27:21;;;;;;;2.97;1.42;;;;;;;;;;5012036;28;20042;-68
2022/02/17 10:29:58;;;;;;;3.80;1.33;;;;;;;;;;4995057;28;20046;-69
2022/02/17 10:32:26;;;;;;;3.47;1.15;;;;;;;;;;5016253;28;20470;-68
2022/02/17 10:35:11;;;;;;;2.17;1.20;;;;;;;;;;5006081;28;20046;-69
2022/02/17 10:37:42;;;;;;;2.88;0.85;;;;;;;;;;4995876;28;20122;-68
2022/02/17 10:40:14;;;;;;;1.10;0.50;;;;;;;;;;5000174;28;20050;-67
2022/02/17 10:42:42;;;;;;;4.07;1.40;;;;;;;;;;5006415;28;20046;-67
2022/02/17 10:45:29;;;;;;;3.45;0.75;;;;;;;;;;4991215;28;20031;-68
2022/02/17 10:48:16;;;;;;;1.50;0.70;;;;;;;;;;4995838;28;20042;-72
2022/02/17 10:50:46;;;;;;;3.80;1.30;;;;;;;;;;4998003;28;20045;-67
2022/02/17 10:53:16;;;;;;;2.75;0.88;;;;;;;;;;5016395;28;20092;-72
2022/02/17 10:56:12;;;;;;;6.95;1.25;;;;;;;;;;5016642;28;20195;-70
2022/02/17 10:58:48;;;;;;;3.60;1.25;;;;;;;;;;5014532;28;20072;-70
2022/02/17 11:01:18;;;;;;;1.73;1.27;;;;;;;;;;5008381;28;20091;-71
2022/02/17 11:03:48;;;;;;;2.28;1.05;;;;;;;;;;4998528;28;20476;-71
2022/02/17 11:06:16;;;;;;;6.03;1.50;;;;;;;;;;5016503;28;20123;-68
2022/02/17 11:08:50;;;;;;;4.75;1.23;;;;;;;;;;4998634;28;20041;-72
2022/02/17 11:11:18;;;;;;;1.38;0.88;;;;;;;;;;5008186;28;20046;-69
2022/02/17 11:13:47;;;;;;;3.20;1.60;;;;;;;;;;4998671;28;20485;-68
2022/02/17 11:16:17;;;;;;;5.20;1.83;;;;;;;;;;5015749;28;20241;-69
2022/02/17 11:18:46;;;;;;;3.47;1.27;;;;;;;;;;5015895;28;20041;-73
2022/02/17 11:21:16;;;;;;;3.20;1.58;;;;;;;;;;5001379;28;20468;-72
2022/02/17 11:23:44;;;;;;;3.13;1.50;;;;;;;;;;4996373;28;20046;-70
2022/02/17 11:26:22;;;;;;;3.03;1.60;;;;;;;;;;4996185;28;20061;-72
2022/02/17 11:28:56;;;;;;;3.83;1.23;;;;;;;;;;4995845;28;20062;-68
2022/02/17 11:31:24;;;;;;;5.88;1.60;;;;;;;;;;4979132;28;20046;-68
2022/02/17 11:33:57;;;;;;;4.20;1.70;;;;;;;;;;4978732;28;20133;-68
2022/02/17 11:36:27;;;;;;;4.07;1.55;;;;;;;;;;4978890;28;20515;-69
2022/02/17 11:38:55;;;;;;;8.00;1.50;;;;;;;;;;4996161;28;20042;-69
2022/02/17 11:41:27;;;;;;;3.25;1.52;;;;;;;;;;4995133;28;20147;-67
2022/02/17 11:44:08;;;;;;;4.07;1.20;;;;;;;;;;4978048;28;20081;-68
2022/02/17 11:46:41;;;;;;;2.33;1.20;;;;;;;;;;4996057;28;20081;-67
2022/02/17 11:49:10;;;;;;;3.00;1.40;;;;;;;;;;4995682;28;20508;-68
2022/02/17 11:51:38;;;;;;;4.13;1.48;;;;;;;;;;4995473;28;20049;-69
2022/02/17 11:54:16;;;;;;;8.05;1.70;;;;;;;;;;4981830;28;20112;-69
2022/02/17 11:56:47;;;;;;;6.70;1.98;;;;;;;;;;5005758;28;20038;-70
2022/02/17 11:59:18;;;;;;;4.95;1.75;;;;;;;;;;5003224;28;20153;-68
2022/02/17 12:01:46;;;;;;;3.70;1.55;;;;;;;;;;4978156;28;20045;-70
2022/02/17 12:04:35;;;;;;;3.55;1.60;;;;;;;;;;4997605;28;20106;-72
2022/02/17 12:07:08;;;;;;;4.25;1.50;;;;;;;;;;5004907;28;20404;-69
2022/02/17 12:09:40;;;;;;;7.05;1.65;;;;;;;;;;4987754;28;20042;-69
2022/02/17 12:12:28;;;;;;;4.38;1.40;;;;;;;;;;5004369;28;20390;-68
2022/02/17 12:15:01;;;;;;;1.90;1.30;;;;;;;;;;5003545;28;20478;-69
2022/02/17 12:17:29;;;;;;;2.03;1.20;;;;;;;;;;5004406;28;20121;-72
2022/02/17 12:20:12;;;;;;;3.78;1.40;;;;;;;;;;5005706;28;20046;-70
2022/02/17 12:22:50;;;;;;;4.82;1.42;;;;;;;;;;5009023;28;20065;-72
2022/02/17 12:25:36;;;;;;;2.65;1.23;;;;;;;;;;5008689;28;20050;-69
2022/02/17 12:28:04;;;;;;;5.93;1.42;;;;;;;;;;5002353;28;20471;-68
2022/02/17 12:30:34;;;;;;;3.10;1.08;;;;;;;;;;5008831;28;20045;-69
2022/02/17 12:33:22;;;;;;;4.65;1.50;;;;;;;;;;4997434;28;20040;-72
2022/02/17 12:36:00;;;;;;;3.88;1.95;;;;;;;;;;4996975;28;20037;-69
2022/02/17 12:38:32;;;;;;;4.32;1.20;;;;;;;;;;4997164;28;20045;-72
2022/02/17 12:41:01;;;;;;;3.67;1.13;;;;;;;;;;5004702;28;20038;-69
2022/02/17 12:43:32;;;;;;;4.80;1.85;;;;;;;;;;5005116;28;20050;-69
2022/02/17 12:46:01;;;;;;;3.97;1.33;;;;;;;;;;4994855;28;20456;-69
2022/02/17 12:48:29;;;;;;;3.72;1.10;;;;;;;;;;5014403;28;20038;-69
2022/02/17 12:51:27;;;;;;;3.83;1.27;;;;;;;;;;5013890;28;20046;-69
2022/02/17 12:54:02;;;;;;;4.30;1.23;;;;;;;;;;4996691;28;20045;-72
2022/02/17 12:56:31;;;;;;;5.82;1.65;;;;;;;;;;4996733;28;20053;-68
2022/02/17 12:59:04;;;;;;;5.03;1.60;;;;;;;;;;5013920;28;20037;-69
2022/02/17 13:01:34;;;;;;;4.93;1.20;;;;;;;;;;4996672;28;20052;-72
2022/02/17 13:04:04;;;;;;;5.75;1.50;;;;;;;;;;4985929;28;20042;-70
2022/02/17 13:06:35;;;;;;;6.57;1.40;;;;;;;;;;5002878;28;20492;-68
2022/02/17 13:09:24;;;;;;;4.43;1.23;;;;;;;;;;5004517;28;20038;-69
2022/02/17 13:11:59;;;;;;;5.85;1.42;;;;;;;;;;5010345;28;20466;-69
2022/02/17 13:14:31;;;;;;;7.28;1.20;;;;;;;;;;5001270;28;20046;-68
2022/02/17 13:17:01;;;;;;;3.22;1.33;;;;;;;;;;4985956;28;20130;-72
2022/02/17 13:19:38;;;;;;;7.85;1.40;;;;;;;;;;4989002;28;20038;-70
2022/02/17 13:22:44;;;;;;;6.20;1.45;;;;;;;;;;4985970;28;20077;-68
2022/02/17 13:25:13;;;;;;;4.15;1.23;;;;;;;;;;4998871;28;20133;-68
2022/02/17 13:27:41;;;;;;;2.67;1.30;;;;;;;;;;4992863;28;20053;-72
2022/02/17 13:30:15;;;;;;;2.63;0.98;;;;;;;;;;4993198;28;20101;-68
2022/02/17 13:32:55;;;;;;;3.75;1.40;;;;;;;;;;4999221;28;20038;-72
2022/02/17 13:35:25;;;;;;;2.63;0.88;;;;;;;;;;4992661;28;20564;-68
2022/02/17 13:38:10;;;;;;;7.05;1.48;;;;;;;;;;4984826;28;20413;-68
2022/02/17 13:40:49;;;;;;;4.07;1.40;;;;;;;;;;5001556;28;20134;-72
2022/02/17 13:43:18;;;;;;;3.08;1.27;;;;;;;;;;4976907;28;20046;-71
2022/02/17 13:45:49;;;;;;;6.82;1.70;;;;;;;;;;4999471;28;20058;-70
2022/02/17 13:48:33;;;;;;;3.42;1.45;;;;;;;;;;4993736;28;20068;-69
2022/02/17 13:51:11;;;;;;;5.50;1.48;;;;;;;;;;4998737;28;20042;-69
2022/02/17 13:53:42;;;;;;;5.00;1.27;;;;;;;;;;5002124;28;20069;-71
2022/02/17 13:56:13;;;;;;;4.10;1.38;;;;;;;;;;4996442;28;20045;-69
2022/02/17 13:58:41;;;;;;;1.38;1.00;;;;;;;;;;4984514;28;20092;-72
2022/02/17 14:01:08;;;;;;;3.35;1.38;;;;;;;;;;4980755;28;20038;-69
2022/02/17 14:03:38;;;;;;;6.22;1.27;;;;;;;;;;4997602;28;20088;-68
2022/02/17 14:06:17;;;;;;;4.18;1.35;;;;;;;;;;4982164;28;20406;-69
2022/02/17 14:08:44;;;;;;;8.63;1.70;;;;;;;;;;4982178;28;20054;-68
2022/02/17 14:11:13;;;;;;;3.78;1.42;;;;;;;;;;4998661;28;20121;-68
2022/02/17 14:13:41;;;;;;;7.93;1.40;;;;;;;;;;4998653;28;20458;-69
2022/02/17 14:16:09;;;;;;;6.40;1.73;;;;;;;;;;4991844;28;20049;-69
2022/02/17 14:18:37;;;;;;;3.58;1.25;;;;;;;;;;4998308;28;20180;-73
2022/02/17 14:21:05;;;;;;;3.70;1.73;;;;;;;;;;4980848;28;20042;-69
2022/02/17 14:23:35;;;;;;;3.70;1.30;;;;;;;;;;4996683;28;20510;-70
2022/02/17 14:26:03;;;;;;;9.85;2.08;;;;;;;;;;4991454;28;20045;-72
2022/02/17 14:28:31;;;;;;;1.98;1.35;;;;;;;;;;4992821;28;20553;-70
2022/02/17 14:30:59;;;;;;;2.67;1.30;;;;;;;;;;4991207;28;20549;-72
2022/02/17 14:33:26;;;;;;;2.75;1.10;;;;;;;;;;4974459;28;20048;-68
2022/02/17 14:35:54;;;;;;;6.70;1.52;;;;;;;;;;4992787;28;20121;-72
2022/02/17 14:38:22;;;;;;;3.92;1.58;;;;;;;;;;4992633;28;20121;-70
2022/02/17 14:40:57;;;;;;;8.70;1.45;;;;;;;;;;4959513;28;20058;-72
2022/02/17 14:43:28;;;;;;;4.85;2.25;;;;;;;;;;4975321;28;20137;-72
2022/02/17 14:45:56;;;;;;;8.60;3.72;;;;;;;;;;4992504;28;20132;-69
2022/02/17 14:48:23;;;;;;;9.63;3.40;;;;;;;;;;4992533;28;20046;-71
2022/02/17 14:50:52;;;;;;;6.13;3.00;;;;;;;;;;4975449;28;20045;-68
2022/02/17 14:53:21;;;;;;;5.57;2.72;;;;;;;;;;4992313;28;20042;-68
2022/02/17 14:55:50;;;;;;;7.25;2.42;;;;;;;;;;4975011;28;20474;-69
2022/02/17 14:58:22;;;;;;;9.02;2.50;;;;;;;;;;4980478;28;20445;-72
2022/02/17 15:00:51;;;;;;;9.40;3.08;;;;;;;;;;4992466;28;20054;-69
2022/02/17 15:03:20;;;;;;;8.10;2.58;;;;;;;;;;4992624;28;20043;-73
2022/02/17 15:05:47;;;;;;;6.47;2.35;;;;;;;;;;4992707;28;20125;-70
2022/02/17 15:08:15;;;;;;;3.80;2.00;;;;;;;;;;4975368;28;20047;-70
2022/02/17 15:10:43;;;;;;;4.40;2.10;;;;;;;;;;4975164;28;20062;-70